Time;durP1;ratioP1;P1;durP2;ratioP2;P2;SDS_P1;SDS_P2;PMS_P1;PMS_P2;Temp;Humidity;BMP_temperature;BMP_pressure;BME280_temperature;BME280_humidity;BME280_pressure;Samples;Min_cycle;Max_cycle;Signal;HPM_P1;HPM_P2
2022/05/10 00:00:54;;;;;;;10.33;9.13;;;16.10;73.70;;;;;;4984470;28;20470;-44
2022/05/10 00:03:23;;;;;;;11.10;10.03;;;16.10;73.90;;;;;;4980620;28;20473;-44
2022/05/10 00:05:50;;;;;;;11.00;9.80;;;16.10;74.00;;;;;;4958635;28;20464;-44
2022/05/10 00:08:18;;;;;;;11.13;9.93;;;16.10;74.00;;;;;;4971603;28;20481;-44
2022/05/10 00:10:45;;;;;;;11.43;10.43;;;16.10;73.90;;;;;;4980257;28;20465;-45
2022/05/10 00:13:13;;;;;;;11.80;10.60;;;16.00;73.60;;;;;;4977767;28;20480;-44
2022/05/10 00:15:40;;;;;;;10.73;9.73;;;16.00;73.80;;;;;;4980003;28;20859;-44
2022/05/10 00:18:11;;;;;;;10.57;9.47;;;16.00;74.00;;;;;;4977796;28;20464;-45
2022/05/10 00:20:40;;;;;;;11.80;10.47;;;15.90;74.10;;;;;;4980640;28;20543;-44
2022/05/10 00:23:06;;;;;;;12.10;10.90;;;15.90;74.20;;;;;;4974777;28;20997;-44
2022/05/10 00:25:33;;;;;;;10.03;9.10;;;15.80;74.50;;;;;;4983462;28;20943;-45
2022/05/10 00:28:00;;;;;;;11.53;10.50;;;15.80;74.70;;;;;;4976288;28;20469;-44
2022/05/10 00:30:27;;;;;;;11.10;10.00;;;15.80;74.80;;;;;;4979421;28;20462;-44
2022/05/10 00:32:55;;;;;;;11.50;10.00;;;15.80;74.90;;;;;;4982754;28;20782;-44
2022/05/10 00:35:28;;;;;;;12.97;11.63;;;15.80;75.10;;;;;;4981207;28;20469;-44
2022/05/10 00:37:59;;;;;;;11.43;10.33;;;15.80;75.10;;;;;;4978303;28;20993;-45
2022/05/10 00:40:34;;;;;;;13.23;10.50;;;15.70;75.20;;;;;;4968042;28;20931;-45
2022/05/10 00:43:20;;;;;;;11.13;10.00;;;15.70;75.50;;;;;;4980281;28;20466;-44
2022/05/10 00:46:07;;;;;;;11.70;10.47;;;15.70;75.30;;;;;;4980675;28;20844;-44
2022/05/10 00:49:10;;;;;;;12.40;11.13;;;15.70;75.20;;;;;;4978692;28;21007;-44
2022/05/10 00:51:52;;;;;;;10.67;9.57;;;15.70;75.30;;;;;;4977025;28;20887;-44
2022/05/10 00:54:51;;;;;;;11.97;10.77;;;15.70;75.10;;;;;;4978335;28;20671;-44
2022/05/10 00:57:44;;;;;;;11.30;10.20;;;15.60;75.30;;;;;;4976756;28;20897;-44
2022/05/10 01:00:13;;;;;;;11.10;10.10;;;15.60;75.50;;;;;;4975350;28;20472;-44
2022/05/10 01:02:46;;;;;;;12.47;10.53;;;15.60;75.40;;;;;;4978516;28;20489;-44
2022/05/10 01:05:23;;;;;;;11.10;10.00;;;15.60;75.50;;;;;;4960709;28;20460;-44
2022/05/10 01:08:08;;;;;;;10.80;9.80;;;15.50;75.50;;;;;;4978801;28;20479;-44
2022/05/10 01:10:50;;;;;;;10.87;9.87;;;15.50;75.50;;;;;;4980173;28;20995;-44
2022/05/10 01:13:27;;;;;;;12.10;10.43;;;15.50;75.60;;;;;;4957583;28;20969;-44
2022/05/10 01:16:01;;;;;;;12.33;10.40;;;15.40;75.80;;;;;;4952832;28;20496;-43
2022/05/10 01:18:27;;;;;;;11.07;9.93;;;15.40;75.80;;;;;;4960149;28;20460;-44
2022/05/10 01:21:00;;;;;;;11.80;9.90;;;15.40;75.90;;;;;;4958570;28;20518;-44
2022/05/10 01:23:35;;;;;;;11.53;10.40;;;15.40;75.60;;;;;;4959670;28;20468;-44
2022/05/10 01:26:23;;;;;;;10.53;9.57;;;15.30;75.50;;;;;;4961236;28;20523;-44
2022/05/10 01:28:57;;;;;;;11.23;9.37;;;15.30;75.70;;;;;;4962112;28;20481;-43
2022/05/10 01:31:30;;;;;;;10.90;9.90;;;15.30;75.80;;;;;;4963040;28;20999;-44
2022/05/10 01:34:06;;;;;;;12.13;10.50;;;15.30;75.90;;;;;;4975280;28;20488;-43
2022/05/10 01:36:51;;;;;;;10.73;9.63;;;15.20;76.00;;;;;;4965431;28;20867;-44
2022/05/10 01:39:26;;;;;;;13.43;9.97;;;15.20;76.00;;;;;;4976535;28;20457;-43
2022/05/10 01:42:05;;;;;;;13.20;9.70;;;15.10;75.90;;;;;;4978021;28;20460;-43
2022/05/10 01:44:44;;;;;;;11.07;10.00;;;15.10;76.20;;;;;;4972673;28;20465;-44
2022/05/10 01:47:11;;;;;;;10.07;9.17;;;15.10;76.20;;;;;;4980352;28;20475;-43
2022/05/10 01:49:52;;;;;;;9.90;9.00;;;15.10;76.30;;;;;;4978966;28;21219;-43
2022/05/10 01:52:41;;;;;;;11.73;10.20;;;15.10;76.40;;;;;;4969544;28;20806;-44
2022/05/10 01:55:20;;;;;;;13.70;10.63;;;15.10;76.50;;;;;;4983242;28;20468;-43
2022/05/10 01:57:46;;;;;;;11.53;10.43;;;15.00;76.50;;;;;;4979673;28;20496;-44
2022/05/10 02:00:21;;;;;;;10.93;9.83;;;15.00;76.60;;;;;;4956627;28;20454;-44
2022/05/10 02:02:54;;;;;;;11.37;10.30;;;15.00;76.70;;;;;;4977953;28;20479;-44
2022/05/10 02:05:36;;;;;;;12.73;9.50;;;15.00;76.50;;;;;;4979045;28;20516;-44
2022/05/10 02:08:34;;;;;;;10.00;9.00;;;15.00;76.40;;;;;;4978358;28;20461;-44
2022/05/10 02:11:11;;;;;;;11.80;10.17;;;14.90;76.60;;;;;;4972882;28;20559;-44
2022/05/10 02:13:48;;;;;;;10.00;9.10;;;14.90;76.70;;;;;;4979160;28;20474;-44
2022/05/10 02:16:23;;;;;;;10.50;9.50;;;14.90;76.60;;;;;;4976304;28;20531;-44
2022/05/10 02:18:55;;;;;;;11.80;9.67;;;14.90;76.60;;;;;;4981095;28;20534;-44
2022/05/10 02:21:27;;;;;;;10.40;9.40;;;14.90;76.60;;;;;;4981231;28;20457;-44
2022/05/10 02:24:03;;;;;;;10.37;9.37;;;14.90;76.80;;;;;;4978707;28;20456;-44
2022/05/10 02:26:38;;;;;;;10.80;9.70;;;14.80;76.70;;;;;;4978885;28;20486;-45
2022/05/10 02:29:08;;;;;;;10.37;9.47;;;14.80;76.80;;;;;;4979757;28;20510;-46
2022/05/10 02:34:54;;;;;;;10.57;9.50;;;14.80;76.90;;;;;;4976860;28;20480;-45
2022/05/10 02:37:21;;;;;;;11.00;9.97;;;14.80;76.90;;;;;;4973801;28;20800;-45
2022/05/10 02:39:48;;;;;;;12.23;10.03;;;14.80;77.00;;;;;;4979305;28;20472;-45
2022/05/10 02:42:18;;;;;;;10.53;9.63;;;14.80;77.30;;;;;;4982245;28;20465;-45
2022/05/10 02:44:45;;;;;;;10.07;9.10;;;14.80;77.10;;;;;;4974735;28;20460;-45
2022/05/10 02:47:12;;;;;;;10.67;9.43;;;14.80;77.30;;;;;;4979843;28;20470;-45
2022/05/10 02:49:40;;;;;;;10.50;9.50;;;14.80;77.10;;;;;;4977537;28;20477;-45
2022/05/10 02:52:07;;;;;;;11.07;10.07;;;14.80;77.10;;;;;;4978851;28;21008;-45
2022/05/10 02:54:34;;;;;;;10.87;9.47;;;14.80;77.20;;;;;;4964235;28;21027;-45
2022/05/10 02:57:02;;;;;;;12.23;10.00;;;14.70;77.20;;;;;;4980923;28;20497;-45
2022/05/10 02:59:33;;;;;;;10.60;9.70;;;14.70;77.30;;;;;;4965064;28;20471;-45
2022/05/10 03:02:22;;;;;;;9.90;8.90;;;14.70;77.10;;;;;;4979508;28;20472;-45
2022/05/10 03:04:58;;;;;;;12.63;8.83;;;14.70;77.10;;;;;;4957968;28;20533;-45
2022/05/10 03:07:27;;;;;;;10.67;9.57;;;14.70;77.20;;;;;;4970967;28;20967;-45
2022/05/10 03:09:54;;;;;;;10.90;9.90;;;14.70;77.10;;;;;;4982084;28;21023;-45
2022/05/10 03:12:21;;;;;;;10.50;8.47;;;14.60;76.90;;;;;;4980125;28;20472;-45
2022/05/10 03:14:47;;;;;;;9.87;8.93;;;14.60;77.10;;;;;;4981129;28;20471;-45
2022/05/10 03:17:15;;;;;;;9.00;8.10;;;14.60;76.80;;;;;;4980588;28;20605;-46
2022/05/10 03:19:42;;;;;;;9.27;8.47;;;14.60;76.30;;;;;;4968504;28;21045;-46
2022/05/10 03:22:11;;;;;;;9.33;8.53;;;14.50;76.30;;;;;;4980793;28;20468;-46
2022/05/10 03:24:38;;;;;;;9.67;8.77;;;14.50;76.50;;;;;;4975885;28;20917;-46
2022/05/10 03:27:07;;;;;;;10.07;9.17;;;14.50;75.90;;;;;;4974899;28;20471;-46
2022/05/10 03:29:34;;;;;;;11.60;10.70;;;14.50;75.40;;;;;;4964781;28;20954;-46
2022/05/10 03:32:01;;;;;;;10.43;9.40;;;14.40;75.40;;;;;;4965399;28;20528;-45
2022/05/10 03:35:02;;;;;;;11.07;9.60;;;14.30;75.90;;;;;;4961503;28;21062;-45
2022/05/10 03:37:23;;;;;;;10.80;9.80;;;14.30;76.50;;;;;;4975903;28;20496;-45
2022/05/10 03:39:50;;;;;;;11.83;9.47;;;14.30;76.70;;;;;;4981128;28;20497;-45
2022/05/10 03:42:18;;;;;;;11.60;10.60;;;14.30;77.10;;;;;;4986600;28;20490;-45
2022/05/10 03:44:49;;;;;;;11.20;10.10;;;14.20;77.10;;;;;;4962177;28;20559;-46
2022/05/10 03:47:17;;;;;;;11.33;10.17;;;14.20;77.30;;;;;;4981105;28;20539;-46
2022/05/10 03:49:45;;;;;;;12.47;10.57;;;14.10;77.40;;;;;;4975138;28;20901;-46
2022/05/10 03:52:13;;;;;;;10.53;9.43;;;14.10;77.70;;;;;;4980083;28;20594;-46
2022/05/10 03:54:40;;;;;;;12.07;10.87;;;14.10;77.70;;;;;;4960409;28;20472;-46
2022/05/10 03:57:07;;;;;;;12.47;10.40;;;14.10;77.80;;;;;;4981312;28;20503;-46
2022/05/10 03:59:37;;;;;;;13.10;11.80;;;14.10;77.80;;;;;;4981370;28;20461;-46
2022/05/10 04:02:04;;;;;;;11.20;10.00;;;14.10;77.80;;;;;;4975063;28;21016;-45
2022/05/10 04:04:31;;;;;;;12.87;11.60;;;14.00;77.90;;;;;;4981920;28;20874;-45
2022/05/10 04:07:07;;;;;;;12.10;10.97;;;14.00;78.20;;;;;;4958254;28;20464;-45
2022/05/10 04:09:34;;;;;;;11.50;10.33;;;14.00;78.30;;;;;;4962498;28;21065;-45
2022/05/10 04:12:02;;;;;;;11.03;10.00;;;14.00;78.40;;;;;;4981964;28;20484;-45
2022/05/10 04:14:29;;;;;;;10.83;9.83;;;14.00;78.40;;;;;;4982338;28;20467;-45
2022/05/10 04:16:56;;;;;;;10.77;9.63;;;14.10;78.70;;;;;;4961665;28;20492;-45
2022/05/10 04:19:23;;;;;;;12.43;11.23;;;14.10;78.60;;;;;;4983077;28;20953;-46
2022/05/10 04:21:50;;;;;;;15.10;11.30;;;14.10;78.80;;;;;;4981400;28;20479;-46
2022/05/10 04:24:17;;;;;;;11.00;10.03;;;14.10;78.80;;;;;;4982198;28;21281;-46
2022/05/10 04:26:44;;;;;;;12.77;10.70;;;14.10;78.60;;;;;;4979391;28;20555;-46
2022/05/10 04:29:12;;;;;;;11.73;10.53;;;14.10;78.60;;;;;;4976136;28;20469;-46
2022/05/10 04:31:38;;;;;;;12.80;11.60;;;14.10;78.80;;;;;;4977968;28;20580;-45
2022/05/10 04:34:06;;;;;;;12.57;11.20;;;14.10;79.00;;;;;;4955126;28;20476;-45
2022/05/10 04:36:33;;;;;;;12.73;11.43;;;14.10;79.10;;;;;;4981484;28;20489;-45
2022/05/10 04:38:59;;;;;;;12.90;11.67;;;14.20;79.40;;;;;;4983244;28;21025;-45
2022/05/10 04:41:29;;;;;;;12.60;11.33;;;14.30;79.30;;;;;;4977850;28;20465;-45
2022/05/10 04:44:07;;;;;;;12.80;11.53;;;14.30;79.30;;;;;;4974472;28;20464;-45
2022/05/10 04:46:36;;;;;;;13.57;12.20;;;14.30;79.30;;;;;;4978479;28;20464;-45
2022/05/10 04:49:04;;;;;;;13.10;11.77;;;14.30;79.20;;;;;;4979176;28;20500;-45
2022/05/10 04:51:31;;;;;;;13.23;11.90;;;14.30;79.20;;;;;;4977959;28;20480;-45
2022/05/10 04:53:59;;;;;;;12.07;10.80;;;14.30;79.10;;;;;;4981805;28;20470;-45
2022/05/10 04:56:25;;;;;;;13.90;12.40;;;14.40;79.20;;;;;;4980127;28;20476;-45
2022/05/10 04:58:54;;;;;;;12.97;11.70;;;14.40;79.20;;;;;;4979625;28;20465;-45
2022/05/10 05:01:27;;;;;;;12.10;11.00;;;14.50;79.30;;;;;;4979339;28;20555;-45
2022/05/10 05:03:56;;;;;;;13.30;11.90;;;14.50;79.40;;;;;;4977603;28;20958;-45
2022/05/10 05:06:26;;;;;;;13.73;12.43;;;14.60;79.50;;;;;;4982521;28;20464;-46
2022/05/10 05:08:53;;;;;;;15.30;13.87;;;14.60;79.30;;;;;;4963125;28;20886;-46
2022/05/10 05:11:20;;;;;;;15.33;13.80;;;14.60;79.20;;;;;;4976082;28;20456;-46
2022/05/10 05:13:47;;;;;;;15.43;13.70;;;14.60;79.10;;;;;;4980939;28;20454;-46
2022/05/10 05:16:14;;;;;;;13.23;11.67;;;14.70;78.90;;;;;;4959231;28;20475;-42
2022/05/10 05:18:41;;;;;;;14.53;12.90;;;14.70;78.80;;;;;;4961571;28;20501;-42
2022/05/10 05:21:07;;;;;;;18.80;12.63;;;14.80;78.70;;;;;;4982341;28;20472;-42
2022/05/10 05:23:34;;;;;;;14.60;13.10;;;14.80;78.10;;;;;;4979271;28;20472;-42
2022/05/10 05:26:01;;;;;;;14.03;12.53;;;14.90;77.30;;;;;;4978346;28;20523;-42
2022/05/10 05:28:29;;;;;;;15.20;13.30;;;15.00;77.90;;;;;;4964120;28;20465;-42
2022/05/10 05:30:57;;;;;;;16.27;12.87;;;15.00;77.70;;;;;;4975970;28;20495;-42
2022/05/10 05:33:24;;;;;;;14.77;12.10;;;15.00;77.50;;;;;;4967883;28;20537;-42
2022/05/10 05:35:51;;;;;;;14.50;13.10;;;15.00;77.50;;;;;;4958980;28;20473;-42
2022/05/10 05:38:17;;;;;;;14.20;12.80;;;15.10;77.30;;;;;;4959464;28;20972;-42
2022/05/10 05:40:44;;;;;;;15.17;13.43;;;15.20;77.40;;;;;;4963175;28;20465;-42
2022/05/10 05:43:21;;;;;;;14.17;12.77;;;15.20;77.60;;;;;;4980472;28;20475;-42
2022/05/10 05:45:50;;;;;;;15.40;12.73;;;15.30;77.90;;;;;;4976245;28;20488;-42
2022/05/10 05:48:17;;;;;;;16.87;13.73;;;15.40;77.30;;;;;;4979383;28;20512;-43
2022/05/10 05:50:44;;;;;;;20.70;14.10;;;15.50;76.90;;;;;;4964219;28;20901;-42
2022/05/10 05:53:11;;;;;;;13.70;11.47;;;15.50;77.00;;;;;;4974418;28;20470;-42
2022/05/10 05:55:38;;;;;;;14.93;12.63;;;15.60;76.60;;;;;;4974138;28;20510;-42
2022/05/10 05:58:05;;;;;;;14.17;12.73;;;15.70;76.20;;;;;;4980823;28;20521;-42
2022/05/10 06:00:32;;;;;;;16.47;12.73;;;15.70;76.30;;;;;;4976343;28;20475;-42
2022/05/10 06:02:59;;;;;;;14.20;12.80;;;15.80;76.60;;;;;;4978824;28;20597;-42
2022/05/10 06:05:27;;;;;;;15.00;13.30;;;15.80;76.60;;;;;;4981744;28;20920;-43
2022/05/10 06:07:54;;;;;;;14.13;12.70;;;15.90;76.60;;;;;;4977854;28;20511;-42
2022/05/10 06:10:20;;;;;;;16.10;13.37;;;15.90;75.90;;;;;;4984679;28;20478;-42
2022/05/10 06:12:47;;;;;;;14.20;12.80;;;15.90;75.90;;;;;;4980067;28;20477;-42
2022/05/10 06:15:17;;;;;;;14.53;13.00;;;16.00;76.50;;;;;;4982048;28;21084;-43
2022/05/10 06:17:46;;;;;;;13.03;11.60;;;16.00;76.70;;;;;;4964178;28;21093;-43
2022/05/10 06:20:17;;;;;;;14.23;12.90;;;16.00;76.60;;;;;;4970788;28;20465;-43
2022/05/10 06:22:45;;;;;;;12.73;11.43;;;16.10;76.70;;;;;;4970123;28;20474;-43
2022/05/10 06:25:15;;;;;;;13.80;12.37;;;16.20;76.40;;;;;;4977655;28;20812;-43
2022/05/10 06:27:42;;;;;;;14.00;12.67;;;16.30;76.00;;;;;;4974827;28;20520;-42
2022/05/10 06:30:09;;;;;;;13.67;12.47;;;16.30;75.50;;;;;;4976946;28;20824;-43
2022/05/10 06:32:37;;;;;;;14.70;13.30;;;16.30;75.60;;;;;;4977098;28;20492;-43
2022/05/10 06:35:04;;;;;;;15.13;13.03;;;16.40;75.10;;;;;;4977807;28;20897;-43
2022/05/10 06:40:18;;;;;;;12.97;11.67;;;16.50;73.30;;;;;;4975216;28;20519;-42
2022/05/10 06:42:45;;;;;;;13.70;12.40;;;16.50;73.60;;;;;;4975948;28;20831;-42
2022/05/10 06:45:15;;;;;;;15.00;13.33;;;16.60;73.60;;;;;;4979641;28;20689;-42
2022/05/10 06:47:43;;;;;;;16.67;13.97;;;16.60;73.90;;;;;;4978659;28;20955;-43
2022/05/10 06:50:12;;;;;;;13.67;12.00;;;16.70;74.20;;;;;;4965300;28;20454;-42
2022/05/10 06:52:40;;;;;;;13.43;12.13;;;16.80;74.10;;;;;;4962026;28;20539;-42
2022/05/10 06:55:14;;;;;;;17.20;11.90;;;16.90;73.50;;;;;;4977427;28;20488;-42
2022/05/10 06:57:41;;;;;;;13.53;12.20;;;17.00;73.40;;;;;;4981536;28;20528;-42
2022/05/10 07:00:11;;;;;;;13.87;12.50;;;17.10;73.60;;;;;;4978116;28;20458;-42
2022/05/10 07:02:39;;;;;;;12.87;11.53;;;17.20;72.70;;;;;;4975517;28;20469;-43
2022/05/10 07:05:07;;;;;;;12.43;11.23;;;17.30;72.00;;;;;;4962027;28;20546;-42
2022/05/10 07:07:35;;;;;;;13.20;11.90;;;17.40;70.90;;;;;;4979008;28;20975;-42
2022/05/10 07:10:04;;;;;;;13.63;12.33;;;17.50;71.20;;;;;;4948847;28;20734;-42
2022/05/10 07:12:31;;;;;;;14.10;12.37;;;17.60;71.40;;;;;;4981450;28;20473;-42
2022/05/10 07:14:57;;;;;;;11.83;10.73;;;17.80;71.30;;;;;;4977762;28;20470;-42
2022/05/10 07:17:31;;;;;;;12.80;11.60;;;17.90;71.40;;;;;;4983348;28;20497;-42
2022/05/10 07:19:58;;;;;;;13.20;11.83;;;18.10;70.70;;;;;;4981089;28;20918;-42
2022/05/10 07:22:25;;;;;;;13.23;11.07;;;18.30;70.50;;;;;;4965130;28;20457;-42
2022/05/10 07:24:52;;;;;;;13.47;12.20;;;18.40;70.00;;;;;;4979320;28;20459;-42
2022/05/10 07:27:18;;;;;;;13.30;11.93;;;18.60;69.70;;;;;;4970462;28;20473;-42
2022/05/10 07:29:45;;;;;;;12.87;11.57;;;18.80;69.20;;;;;;4970183;28;20477;-42
2022/05/10 07:32:14;;;;;;;12.30;10.37;;;19.00;68.80;;;;;;4975100;28;20480;-42
2022/05/10 07:34:44;;;;;;;12.67;11.17;;;19.10;68.60;;;;;;4973541;28;20484;-44
2022/05/10 07:37:11;;;;;;;12.77;11.47;;;19.40;68.50;;;;;;4973096;28;20504;-43
2022/05/10 07:39:38;;;;;;;11.67;10.47;;;19.60;67.30;;;;;;4978228;28;20473;-43
2022/05/10 07:42:05;;;;;;;12.43;11.13;;;19.80;66.60;;;;;;4962973;28;20556;-43
2022/05/10 07:44:38;;;;;;;11.40;10.37;;;19.90;65.90;;;;;;4976615;28;20474;-43
2022/05/10 07:47:05;;;;;;;11.50;10.40;;;20.00;64.40;;;;;;4963780;28;21006;-43
2022/05/10 07:49:33;;;;;;;13.53;11.03;;;20.20;64.40;;;;;;4978906;28;20458;-43
2022/05/10 07:52:00;;;;;;;14.77;10.30;;;20.30;64.20;;;;;;4958515;28;21320;-42
2022/05/10 07:54:28;;;;;;;14.60;10.00;;;20.40;62.60;;;;;;4975788;28;20461;-42
2022/05/10 07:56:54;;;;;;;12.03;10.93;;;20.60;62.00;;;;;;4963931;28;20465;-42
2022/05/10 07:59:21;;;;;;;13.13;11.03;;;20.80;62.30;;;;;;4980226;28;20488;-42
2022/05/10 08:01:48;;;;;;;13.43;11.00;;;21.00;61.80;;;;;;4968473;28;20480;-42
2022/05/10 08:04:15;;;;;;;10.77;9.67;;;21.20;61.50;;;;;;4968621;28;20458;-43
2022/05/10 08:06:42;;;;;;;12.40;10.10;;;21.40;61.50;;;;;;4967985;28;20463;-43
2022/05/10 08:09:08;;;;;;;10.73;9.60;;;21.50;61.30;;;;;;4967993;28;20557;-43
2022/05/10 08:11:35;;;;;;;13.90;10.43;;;21.70;60.30;;;;;;4949551;28;20469;-43
2022/05/10 08:14:02;;;;;;;10.70;9.40;;;21.90;59.90;;;;;;4977832;28;20994;-43
2022/05/10 08:16:32;;;;;;;10.67;9.53;;;22.20;58.20;;;;;;4972155;28;20473;-43
2022/05/10 08:18:59;;;;;;;12.00;10.80;;;22.30;58.40;;;;;;4972630;28;21118;-43
2022/05/10 08:21:26;;;;;;;10.60;8.87;;;22.50;55.20;;;;;;4954113;28;20989;-43
2022/05/10 08:23:55;;;;;;;11.87;9.70;;;22.60;55.40;;;;;;4956331;28;20504;-43
2022/05/10 08:26:22;;;;;;;12.60;11.50;;;22.60;56.60;;;;;;4971360;28;20453;-43
2022/05/10 08:28:50;;;;;;;15.60;10.93;;;22.70;56.30;;;;;;4976597;28;20488;-43
2022/05/10 08:31:23;;;;;;;15.00;11.20;;;22.70;56.20;;;;;;4967357;28;20595;-44
2022/05/10 08:33:50;;;;;;;11.83;10.30;;;22.70;56.10;;;;;;4977190;28;21116;-43
2022/05/10 08:36:17;;;;;;;11.87;10.90;;;22.70;56.40;;;;;;4982507;28;20479;-43
2022/05/10 08:38:43;;;;;;;11.10;10.10;;;22.80;56.30;;;;;;4981741;28;20928;-43
2022/05/10 08:41:19;;;;;;;10.63;9.57;;;22.90;56.40;;;;;;4980748;28;20469;-43
2022/05/10 08:43:51;;;;;;;11.13;10.13;;;22.90;56.70;;;;;;4981535;28;20526;-43
2022/05/10 08:46:25;;;;;;;13.00;11.70;;;23.00;56.30;;;;;;4968988;28;20462;-43
2022/05/10 08:48:57;;;;;;;13.30;12.10;;;23.00;56.80;;;;;;4985796;28;20454;-43
2022/05/10 08:51:24;;;;;;;12.90;11.53;;;23.10;56.50;;;;;;4980424;28;20560;-43
2022/05/10 08:53:51;;;;;;;13.50;11.97;;;23.20;56.50;;;;;;4979481;28;20469;-43
2022/05/10 08:56:30;;;;;;;14.00;12.50;;;23.30;56.40;;;;;;4966274;28;20539;-43
2022/05/10 08:59:19;;;;;;;14.43;12.80;;;23.50;56.50;;;;;;4971443;28;20575;-44
2022/05/10 09:02:12;;;;;;;15.00;11.53;;;23.60;55.50;;;;;;4980285;28;20473;-43
2022/05/10 09:04:42;;;;;;;13.80;12.60;;;23.80;55.90;;;;;;4964696;28;20875;-44
2022/05/10 09:07:37;;;;;;;13.97;12.70;;;24.00;55.60;;;;;;4980124;28;20826;-44
2022/05/10 09:10:17;;;;;;;15.10;12.13;;;24.10;54.90;;;;;;4982750;28;20956;-43
2022/05/10 09:13:08;;;;;;;12.40;11.20;;;24.30;54.70;;;;;;4968249;28;20474;-44
2022/05/10 09:15:44;;;;;;;12.57;11.43;;;24.60;54.70;;;;;;4975859;28;20471;-44
2022/05/10 09:18:23;;;;;;;12.23;10.97;;;24.80;53.50;;;;;;4972008;28;20500;-43
2022/05/10 09:20:56;;;;;;;12.13;10.83;;;25.00;53.60;;;;;;4971819;28;20929;-43
2022/05/10 09:23:40;;;;;;;13.50;12.37;;;25.10;52.80;;;;;;4974452;28;20519;-43
2022/05/10 09:26:11;;;;;;;11.90;10.80;;;25.20;52.50;;;;;;4974365;28;20963;-44
2022/05/10 09:29:00;;;;;;;12.77;11.67;;;25.30;52.80;;;;;;4959473;28;20540;-43
2022/05/10 09:34:46;;;;;;;19.07;10.37;;;25.30;51.10;;;;;;4982097;28;20888;-44
2022/05/10 09:37:45;;;;;;;11.17;10.00;;;25.50;52.00;;;;;;4982633;28;21079;-43
2022/05/10 09:40:17;;;;;;;10.67;9.67;;;25.70;50.60;;;;;;4980379;28;20551;-43
2022/05/10 09:42:50;;;;;;;12.20;11.10;;;25.80;50.90;;;;;;4961680;28;20551;-43
2022/05/10 09:45:25;;;;;;;12.13;11.03;;;25.90;50.90;;;;;;4979504;28;20866;-43
2022/05/10 09:48:00;;;;;;;10.83;9.93;;;26.00;50.50;;;;;;4961194;28;21060;-43
2022/05/10 09:50:40;;;;;;;10.70;9.70;;;26.10;49.60;;;;;;4975257;28;20876;-43
2022/05/10 09:53:29;;;;;;;10.90;9.80;;;26.30;50.10;;;;;;4968060;28;20492;-43
2022/05/10 09:56:02;;;;;;;10.47;9.53;;;26.50;49.80;;;;;;4968524;28;20522;-43
2022/05/10 09:58:35;;;;;;;10.17;9.27;;;26.50;48.20;;;;;;4966777;28;20985;-43
2022/05/10 10:01:05;;;;;;;11.90;10.90;;;26.60;48.80;;;;;;4977124;28;20551;-43
2022/05/10 10:03:38;;;;;;;11.67;10.67;;;26.60;48.40;;;;;;4979630;28;20966;-43
2022/05/10 10:06:24;;;;;;;12.70;11.50;;;26.60;48.70;;;;;;4977615;28;20595;-43
2022/05/10 10:08:56;;;;;;;11.17;10.27;;;26.60;48.20;;;;;;4963073;28;20548;-44
2022/05/10 10:11:30;;;;;;;12.20;11.20;;;26.40;48.50;;;;;;4980599;28;20527;-43
2022/05/10 10:14:00;;;;;;;12.80;11.50;;;26.20;49.40;;;;;;4977966;28;20553;-43
2022/05/10 10:16:31;;;;;;;11.50;10.40;;;26.10;49.40;;;;;;4974985;28;20543;-43
2022/05/10 10:19:04;;;;;;;11.47;10.27;;;25.80;50.40;;;;;;4975999;28;20491;-43
2022/05/10 10:21:45;;;;;;;11.10;10.10;;;25.60;51.50;;;;;;4979649;28;20450;-43
2022/05/10 10:24:27;;;;;;;9.70;8.90;;;25.50;52.00;;;;;;4980282;28;20461;-43
2022/05/10 10:27:02;;;;;;;11.90;10.90;;;25.50;52.60;;;;;;4978663;28;20508;-44
2022/05/10 10:29:46;;;;;;;10.07;9.17;;;25.50;51.00;;;;;;4976548;28;20453;-43
2022/05/10 10:32:23;;;;;;;11.40;10.13;;;25.60;51.70;;;;;;4979011;28;20476;-43
2022/05/10 10:34:56;;;;;;;11.53;10.23;;;25.50;51.20;;;;;;4979497;28;20460;-43
2022/05/10 10:37:36;;;;;;;11.80;10.40;;;25.30;51.30;;;;;;4980169;28;20457;-43
2022/05/10 10:40:12;;;;;;;10.70;9.70;;;25.30;52.00;;;;;;4965197;28;20997;-44
2022/05/10 10:42:49;;;;;;;10.47;9.40;;;25.20;52.10;;;;;;4980706;28;20440;-44
2022/05/10 10:45:19;;;;;;;10.27;8.80;;;25.10;52.40;;;;;;4976883;28;20476;-44
2022/05/10 10:48:04;;;;;;;11.53;10.47;;;25.20;52.90;;;;;;4976507;28;21005;-44
2022/05/10 10:50:32;;;;;;;8.37;7.63;;;25.10;52.20;;;;;;4977921;28;20472;-44
2022/05/10 10:53:02;;;;;;;9.70;8.90;;;25.20;52.40;;;;;;4978131;28;20460;-44
2022/05/10 10:56:03;;;;;;;9.70;8.90;;;25.20;52.30;;;;;;4969289;28;20466;-44
2022/05/10 10:58:48;;;;;;;12.03;9.60;;;25.30;51.60;;;;;;4975397;28;20835;-43
2022/05/10 11:01:36;;;;;;;10.67;9.60;;;25.30;52.10;;;;;;4959567;28;20965;-44
2022/05/10 11:04:18;;;;;;;9.70;8.93;;;25.30;51.90;;;;;;4975471;28;20472;-43
2022/05/10 11:06:51;;;;;;;9.17;8.47;;;25.30;51.00;;;;;;4975738;28;20456;-43
2022/05/10 11:09:38;;;;;;;10.40;9.40;;;25.30;51.40;;;;;;4976821;28;20454;-43
2022/05/10 11:12:15;;;;;;;10.43;9.53;;;25.40;53.00;;;;;;4983630;28;20927;-43
2022/05/10 11:15:07;;;;;;;9.47;8.57;;;25.40;52.50;;;;;;4977733;28;20539;-43
2022/05/10 11:18:06;;;;;;;11.53;10.40;;;25.30;53.40;;;;;;4972836;28;20812;-43
2022/05/10 11:20:54;;;;;;;10.83;9.93;;;25.30;52.70;;;;;;4936423;28;20460;-43
2022/05/10 11:23:58;;;;;;;10.77;9.17;;;25.20;53.10;;;;;;4976892;28;20957;-44
2022/05/10 11:26:34;;;;;;;11.70;10.57;;;25.30;53.00;;;;;;4978390;28;20813;-43
2022/05/10 11:29:28;;;;;;;11.40;10.50;;;25.30;53.30;;;;;;4976585;28;20966;-43
2022/05/10 11:32:07;;;;;;;11.63;10.50;;;25.30;52.50;;;;;;4952022;28;20485;-44
2022/05/10 11:34:43;;;;;;;11.33;10.23;;;25.30;52.50;;;;;;4973511;28;20955;-44
2022/05/10 11:37:15;;;;;;;9.27;8.57;;;25.30;53.40;;;;;;4972038;28;21078;-43
2022/05/10 11:39:45;;;;;;;9.53;8.50;;;25.40;53.80;;;;;;4978365;28;20588;-43
2022/05/10 11:42:38;;;;;;;10.77;8.87;;;25.40;53.90;;;;;;4979874;28;20551;-43
2022/05/10 11:45:31;;;;;;;9.50;8.60;;;25.50;52.30;;;;;;4978508;28;20472;-43
2022/05/10 11:48:14;;;;;;;8.03;7.43;;;25.40;52.10;;;;;;4974462;28;20481;-43
2022/05/10 11:54:22;;;;;;;8.57;7.73;;;25.50;51.70;;;;;;4978347;28;20457;-43
2022/05/10 11:56:52;;;;;;;8.50;7.70;;;25.50;50.90;;;;;;4950122;28;20557;-43
2022/05/10 11:59:32;;;;;;;9.60;8.70;;;25.50;51.20;;;;;;4977463;28;21000;-44
2022/05/10 12:02:01;;;;;;;8.67;7.80;;;25.50;51.60;;;;;;4958460;28;20480;-44
2022/05/10 12:04:43;;;;;;;8.50;7.80;;;25.50;52.20;;;;;;4977983;28;20515;-43
2022/05/10 12:07:20;;;;;;;11.23;8.50;;;25.50;52.20;;;;;;4967214;28;20468;-44
2022/05/10 12:09:52;;;;;;;10.53;8.70;;;25.50;52.30;;;;;;4982020;28;20579;-44
2022/05/10 12:12:31;;;;;;;8.70;7.90;;;25.50;52.20;;;;;;4982834;28;20511;-44
2022/05/10 12:21:22;;;;;;;8.70;8.00;;;25.50;52.10;;;;;;4968540;28;20313;-43
2022/05/10 12:24:13;;;;;;;9.70;8.90;;;25.50;51.30;;;;;;4977351;28;20529;-44
2022/05/10 12:26:51;;;;;;;10.47;8.30;;;25.60;51.90;;;;;;4980357;28;20866;-43
2022/05/10 12:29:40;;;;;;;8.90;8.00;;;25.50;51.70;;;;;;4962184;28;20453;-43
2022/05/10 12:32:39;;;;;;;9.90;8.77;;;25.50;52.40;;;;;;4976968;28;20974;-44
2022/05/10 12:35:21;;;;;;;10.10;9.20;;;25.60;52.80;;;;;;4975862;28;20496;-44
2022/05/10 12:37:56;;;;;;;9.73;8.77;;;25.60;51.20;;;;;;4971716;28;21006;-44
2022/05/10 12:40:31;;;;;;;11.30;10.10;;;25.60;52.30;;;;;;4975368;28;20498;-43
2022/05/10 12:43:25;;;;;;;11.73;10.63;;;25.70;51.60;;;;;;4984647;28;20463;-43
2022/05/10 12:46:11;;;;;;;11.37;10.37;;;25.60;51.80;;;;;;4980373;28;20457;-44
2022/05/10 12:48:58;;;;;;;11.23;10.23;;;25.60;51.90;;;;;;4980147;28;20469;-43
2022/05/10 12:51:47;;;;;;;10.97;9.97;;;25.60;52.40;;;;;;4981503;28;20552;-44
2022/05/10 12:54:25;;;;;;;11.73;10.53;;;25.50;52.30;;;;;;4981310;28;20483;-44
2022/05/10 12:57:06;;;;;;;11.30;10.33;;;25.60;52.30;;;;;;4977705;28;20449;-44
2022/05/10 12:59:55;;;;;;;10.00;9.20;;;25.60;52.30;;;;;;4976502;28;20492;-44
2022/05/10 13:02:22;;;;;;;10.23;9.33;;;25.60;52.40;;;;;;4974578;28;21010;-44
2022/05/10 13:04:56;;;;;;;10.43;9.60;;;25.60;52.30;;;;;;4969693;28;20460;-44
2022/05/10 13:07:26;;;;;;;11.30;10.23;;;25.70;52.70;;;;;;4979998;28;20928;-44
2022/05/10 13:10:07;;;;;;;10.27;9.37;;;25.70;52.20;;;;;;4979126;28;20893;-44
2022/05/10 13:12:38;;;;;;;10.70;9.60;;;25.60;52.20;;;;;;4979083;28;20751;-44
2022/05/10 13:15:11;;;;;;;10.73;9.73;;;25.60;52.40;;;;;;4964390;28;20988;-44
2022/05/10 13:17:41;;;;;;;11.27;10.07;;;25.70;52.50;;;;;;4980954;28;21024;-44
2022/05/10 13:20:12;;;;;;;10.23;9.33;;;25.70;53.00;;;;;;4978102;28;20499;-44